createdAt,value
2022-12-06T00:04:16.512Z,9
2022-12-06T00:14:21.946Z,9
2022-12-06T00:24:26.484Z,8
2022-12-06T00:34:33.341Z,9
2022-12-06T00:44:39.058Z,14
2022-12-06T00:54:45.002Z,11
2022-12-06T01:04:49.964Z,10
2022-12-06T01:14:56.888Z,11
2022-12-06T01:25:01.515Z,12
2022-12-06T01:35:08.110Z,11
2022-12-06T01:45:14.879Z,12
2022-12-06T01:55:20.577Z,8
2022-12-06T02:05:26.606Z,9
2022-12-06T02:15:31.121Z,10
2022-12-06T02:25:40.697Z,8
2022-12-06T02:35:42.624Z,6
2022-12-06T02:45:48.215Z,7
2022-12-06T02:55:53.863Z,6
2022-12-06T03:06:00.307Z,5
2022-12-06T03:16:06.845Z,5
2022-12-06T03:26:12.619Z,7
2022-12-06T03:36:20.580Z,8
2022-12-06T03:46:28.430Z,8
2022-12-06T03:56:30.455Z,5
2022-12-06T04:06:37.542Z,9
2022-12-06T04:16:44.747Z,7
2022-12-06T04:26:50.762Z,6
2022-12-06T04:36:57.008Z,6
2022-12-06T04:47:02.222Z,13
2022-12-06T04:57:06.479Z,6
2022-12-06T05:07:12.912Z,5
2022-12-06T05:17:18.607Z,4
2022-12-06T05:27:22.106Z,6
2022-12-06T05:37:29.657Z,6
2022-12-06T05:47:35.498Z,6
2022-12-06T05:57:47.582Z,18
2022-12-06T06:07:45.120Z,10
2022-12-06T06:17:51.475Z,6
2022-12-06T06:27:57.980Z,4
2022-12-06T06:38:04.837Z,6
2022-12-06T06:48:10.052Z,6
2022-12-06T06:58:17.113Z,6
2022-12-06T07:08:23.873Z,7
2022-12-06T07:18:29.830Z,5
2022-12-06T07:28:36.371Z,9
2022-12-06T07:38:42.351Z,11
2022-12-06T07:48:46.814Z,5
2022-12-06T07:58:50.868Z,6
2022-12-06T08:09:03.258Z,6
2022-12-06T08:19:02.305Z,6
2022-12-06T08:29:08.226Z,7
2022-12-06T08:39:15.080Z,6
2022-12-06T08:49:25.490Z,10
2022-12-06T08:59:25.476Z,7
2022-12-06T09:09:31.299Z,4
2022-12-06T09:19:36.384Z,5
2022-12-06T09:29:41.642Z,5
2022-12-06T09:39:47.913Z,5
2022-12-06T09:49:52.935Z,6
2022-12-06T09:59:58.357Z,5
2022-12-06T10:10:05.164Z,5
2022-12-06T10:20:10.033Z,5
2022-12-06T10:30:17.394Z,6
2022-12-06T10:40:28.212Z,6
2022-12-06T10:50:28.949Z,4
2022-12-06T11:00:46.690Z,5
2022-12-06T11:10:43.214Z,5
2022-12-06T11:20:50.555Z,5
2022-12-06T11:31:03.126Z,5
2022-12-06T11:41:03.475Z,6
2022-12-06T11:51:07.859Z,6
2022-12-06T12:01:14.696Z,5
2022-12-06T12:11:21.593Z,7
2022-12-06T12:21:25.376Z,7
2022-12-06T12:31:31.402Z,4
2022-12-06T12:41:37.697Z,8
2022-12-06T12:51:48.850Z,6
2022-12-06T13:01:52.528Z,6
2022-12-06T13:11:57.482Z,5
2022-12-06T13:22:03.410Z,6
2022-12-06T13:32:07.847Z,5
2022-12-06T13:42:13.538Z,6
2022-12-06T13:52:18.643Z,6
2022-12-06T14:02:28.572Z,7
2022-12-06T14:12:32.211Z,7
2022-12-06T14:22:38.061Z,7
2022-12-06T14:32:44.387Z,10
2022-12-06T14:42:54.964Z,9
2022-12-06T14:53:00.605Z,16
2022-12-06T15:03:24.713Z,18
2022-12-06T15:13:28.522Z,19
2022-12-06T15:23:34.704Z,10
2022-12-06T15:33:40.248Z,15
2022-12-06T15:43:50.804Z,15
2022-12-06T15:53:52.863Z,16
2022-12-06T16:04:00.364Z,48
2022-12-06T16:14:10.710Z,29
2022-12-06T16:25:07.252Z,22
2022-12-06T16:35:00.793Z,22
2022-12-06T16:45:04.621Z,17
2022-12-06T16:55:09.160Z,19
2022-12-06T17:05:13.195Z,23
2022-12-06T17:15:18.120Z,17
2022-12-06T17:25:24.255Z,15
2022-12-06T17:35:27.737Z,31
2022-12-06T17:45:33.387Z,24
2022-12-06T17:55:39.972Z,14
2022-12-06T18:05:46.000Z,14
2022-12-06T18:15:52.011Z,23
2022-12-06T18:25:57.203Z,21
2022-12-06T18:36:02.492Z,24
2022-12-06T18:46:08.974Z,25
2022-12-06T18:56:14.253Z,29
2022-12-06T19:06:49.250Z,33
2022-12-06T19:16:43.666Z,30
2022-12-06T19:26:49.150Z,41
2022-12-06T19:36:53.830Z,40
2022-12-06T19:47:01.323Z,28
2022-12-06T19:57:06.459Z,33
2022-12-06T20:07:11.616Z,33
2022-12-06T20:17:17.731Z,31
2022-12-06T20:27:25.168Z,38
2022-12-06T20:37:29.809Z,35
2022-12-06T20:47:36.821Z,46
2022-12-06T20:57:40.840Z,48
2022-12-06T21:07:47.650Z,44
2022-12-06T21:17:54.360Z,22
2022-12-06T21:28:00.720Z,16
2022-12-06T21:38:07.899Z,17
2022-12-06T21:48:14.210Z,16
2022-12-06T21:58:19.401Z,17
2022-12-06T22:08:25.971Z,17
2022-12-06T22:18:30.500Z,14
2022-12-06T22:28:36.816Z,20
2022-12-06T22:38:43.719Z,19
2022-12-06T22:48:49.126Z,28
2022-12-06T22:58:56.939Z,24
2022-12-06T23:09:04.078Z,27
2022-12-06T23:19:08.708Z,24
2022-12-06T23:29:15.948Z,23
2022-12-06T23:39:20.213Z,17
2022-12-06T23:49:25.932Z,17
2022-12-06T23:59:30.125Z,16
